Pagrindinis puslapis
METAR-TAF:

METAR-TAF

Oro uostai :

Puent Nuaras, Kongas

platuma: 04-49S, ilguma: 011-54E, Aukštis: 17 m

Dabartinis oras

Ataskaita buvo paskelbta 19 valandos ir 18 minutes, ne 10:00 UTC
Vėjas 8 kt iš Pietų
Temperatūra 26°C
Drėgmė 79%
Slėgis 1012 hPa
Matomumas 10 km arba daugiau
Išsisklaidę debesys ne aukštis 1000 ft
Apsiniaukę ne aukštis 2300 ft

METAR: FCPP 171000Z 19008KT 9999 SCT010 OVC023 26/22 Q1012 NOSIG

Laikas: 06:18 (05:18 UTC)

Prognozė

Ataskaita buvo paskelbta 18 valandos ir 18 minutes, ne 11:00 UTC
Prognozė galioja nuo 17 metu 12 UTC su 18 metu 12 UTC
Vėjas 5 kt iš Pietų/Pietvakarių
Matomumas: 8000 m
Išsisklaidę debesys ne aukštis 1800 ft
Tikimybė 30%
nuo 18 metu 04 UTC su 18 metu 08 UTC
Matomumas: 3000 m
rūkana

TAF: FCPP 171100Z 1712/1812 20005KT 8000 SCT018 PROB30 1804/1808 3000 BR

Orai ataskaitas ir orų prognozės (METAR, TAF).

turimą stotys yra geltonos ir raudonos taškus žemėlapyje.

Perkelti pele per norėdami pamatyti stoties vardą.

Tada spustelėkite, norėdami matyti oro stebėjimo ir prognozės.

Norėdami pakeisti žemėlapį: spustelėkite ant žalios mygtukų su juodo kryžiaus žemyn,; žalią mygtuką su brūkšneliu, jei norite nutolinti; arba žalių rodyklių gretimoms žemėlapius.


METAR-TAF: